OSDI

Damascus International Airport

Damascus, Syria
OSDI 221000Z 2212/2318 08010KT 9999 FEW030 TEMPO 2220/2310 VRB03KT 7000
Issued Valid From Valid To
Jan-22 @ 10:00 UTC
(7 hours ago)
Jan-22 @ 12:00 UTC
(5 hours ago)
Jan-23 @ 18:00 UTC
(-1 days ago)
Jan-22 @ 12:00 to Jan-23 @ 18:00
OSDI 221000Z 2212/2318 08010KT 9999 FEW030
Wind Visibility Clouds
80° at 10 knots 10,000+ meters
  • Few at 3,000' AGL
Temporary Jan-22 @ 20:00 to Jan-23 @ 10:00
TEMPO 2220/2310 VRB03KT 7000
Wind Visibility
Variable at 3 knots 7,001 meters
OSDI 221000Z 2212/2318 08010KT 9999 FEW030 TEMPO 2220/2310 VRB03KT 7000
Issued Jan-22 @ 10:00 UTC
(7 hours ago)
Valid From Jan-22 @ 12:00 UTC
(5 hours ago)
Valid To Jan-23 @ 18:00 UTC
(-1 days ago)
Jan-22 @ 12:00 - Jan-23 @ 18:00
Wind Visibility
80° at 10 knots 10,000+ meters
Clouds
  • Few at 3,000' AGL
Temporary Jan-22 @ 20:00 - Jan-23 @ 10:00
Wind Visibility
Variable at 3 knots 7,001 meters